Time;durP1;ratioP1;P1;durP2;ratioP2;P2;SDS_P1;SDS_P2;PMS_P1;PMS_P2;Temp;Humidity;BMP_temperature;BMP_pressure;BME280_temperature;BME280_humidity;BME280_pressure;Samples;Min_cycle;Max_cycle;Signal;HPM_P1;HPM_P2
2021/12/21 00:00:45;;;;;;;15.50;8.10;;;;;;;-3.53;99.68;102044.58;102126;1328;72490;-77
2021/12/21 00:03:12;;;;;;;19.90;10.40;;;;;;;-3.54;99.94;102044.06;101352;1326;72973;-76
2021/12/21 00:05:39;;;;;;;24.00;9.80;;;;;;;-3.53;100.00;102042.31;101405;1328;61705;-78
2021/12/21 00:08:11;;;;;;;21.80;10.10;;;;;;;-3.53;100.00;102043.88;101788;1331;60804;-77
2021/12/21 00:10:44;;;;;;;17.50;8.40;;;;;;;-3.51;100.00;102045.02;101330;1325;73567;-78
2021/12/21 00:14:18;;;;;;;15.20;6.90;;;;;;;-3.50;100.00;102045.14;102273;1328;70340;-77
2021/12/21 00:18:40;;;;;;;11.50;6.40;;;;;;;-3.48;100.00;102041.30;101450;1326;60142;-77
2021/12/21 00:22:23;;;;;;;10.40;6.60;;;;;;;-3.49;100.00;102041.29;101124;1328;60546;-77
2021/12/21 00:24:12;;;;;;;13.70;5.90;;;;;;;-3.51;100.00;102042.91;101041;1326;72819;-77
2021/12/21 00:26:39;;;;;;;;;;;;;;;-3.52;100.00;102044.86;101260;1328;71943;-77
2021/12/21 00:29:06;;;;;;;23.20;10.80;;;;;;;-3.54;100.00;102038.36;101212;1325;72881;-78
2021/12/21 00:31:35;;;;;;;24.10;10.30;;;;;;;-3.57;100.00;102043.47;101296;1325;61496;-79
2021/12/21 00:34:05;;;;;;;12.60;8.10;;;;;;;-3.58;100.00;102048.70;102599;1329;60719;-80
2021/12/21 00:36:32;;;;;;;9.70;6.30;;;;;;;-3.62;99.96;102046.58;101561;1326;74614;-79
2021/12/21 00:39:05;;;;;;;15.30;8.10;;;;;;;-3.66;100.00;102040.33;101549;1328;71242;-80
2021/12/21 00:41:33;;;;;;;15.10;7.20;;;;;;;-3.69;100.00;102039.55;101511;1331;73953;-79
2021/12/21 00:44:00;;;;;;;18.40;6.90;;;;;;;-3.71;100.00;102039.77;101556;1328;61006;-79
2021/12/21 00:46:27;;;;;;;16.70;8.60;;;;;;;-3.73;100.00;102038.83;101344;1327;60618;-80
2021/12/21 00:48:56;;;;;;;16.80;10.00;;;;;;;-3.76;99.95;102038.55;101630;1325;72857;-81
2021/12/21 00:51:26;;;;;;;18.10;9.10;;;;;;;-3.80;99.68;102037.50;101551;1325;70978;-79
2021/12/21 00:53:53;;;;;;;16.50;9.00;;;;;;;-3.83;99.75;102034.98;101669;1329;72970;-77
2021/12/21 00:56:20;;;;;;;11.20;6.90;;;;;;;-3.84;100.00;102033.63;101100;1329;62626;-77
2021/12/21 00:58:46;;;;;;;12.60;5.60;;;;;;;-3.85;100.00;102033.17;101276;1326;60663;-80
2021/12/21 01:01:14;;;;;;;13.30;7.80;;;;;;;-3.91;100.00;102029.72;101598;1325;73360;-80
2021/12/21 01:03:46;;;;;;;17.20;6.50;;;;;;;-3.94;99.98;102033.60;101713;1326;71494;-78
2021/12/21 01:06:23;;;;;;;11.40;7.10;;;;;;;-3.98;99.99;102036.69;101447;1325;73917;-78
2021/12/21 01:11:43;;;;;;;21.30;9.60;;;;;;;-4.00;100.00;102034.99;101518;1322;60575;-77
2021/12/21 01:17:00;;;;;;;24.30;11.40;;;;;;;-4.06;99.88;102034.70;101574;1325;73032;-77
2021/12/21 01:19:32;;;;;;;17.80;8.90;;;;;;;-4.07;99.99;102032.13;101460;1322;72785;-76
2021/12/21 01:22:13;;;;;;;16.40;7.60;;;;;;;-4.09;100.00;102029.23;101515;1323;60489;-76
2021/12/21 01:24:58;;;;;;;13.70;6.10;;;;;;;-4.09;100.00;102030.98;101456;1322;60621;-76
2021/12/21 01:27:43;;;;;;;17.20;7.00;;;;;;;-4.10;100.00;102030.98;101619;1323;74441;-79
2021/12/21 01:30:19;;;;;;;15.70;8.60;;;;;;;-4.12;100.00;102031.75;101795;1322;71596;-79
2021/12/21 01:35:36;;;;;;;29.00;15.50;;;;;;;-4.15;100.00;102025.27;101807;1322;61562;-79
2021/12/21 01:38:12;;;;;;;18.10;9.00;;;;;;;-4.16;100.00;102021.67;101918;1322;60654;-80
2021/12/21 01:40:51;;;;;;;21.20;8.60;;;;;;;-4.17;100.00;102024.66;101854;1322;73247;-80
2021/12/21 01:44:40;;;;;;;15.20;7.60;;;;;;;-4.20;100.00;102021.45;101689;1324;71362;-80
2021/12/21 01:51:44;;;;;;;15.10;8.50;;;;;;;-4.20;100.00;102020.60;101908;1325;61525;-79
2021/12/21 01:54:11;;;;;;;19.70;11.00;;;;;;;-4.20;100.00;102019.90;101913;1322;73498;-79
2021/12/21 01:56:38;;;;;;;18.70;11.30;;;;;;;-4.20;100.00;102015.41;101932;1323;60038;-79
2021/12/21 01:59:04;;;;;;;18.90;10.90;;;;;;;-4.20;100.00;102011.27;101850;1322;73003;-75
2021/12/21 02:01:32;;;;;;;18.20;10.50;;;;;;;-4.20;100.00;102012.48;101447;1325;62201;-77
2021/12/21 02:03:58;;;;;;;15.80;9.30;;;;;;;-4.19;100.00;102017.10;101658;1322;61645;-79
2021/12/21 02:06:27;;;;;;;15.60;9.00;;;;;;;-4.19;100.00;102015.56;101723;1322;74489;-78
2021/12/21 02:08:55;;;;;;;16.30;7.00;;;;;;;-4.22;100.00;102013.23;101434;1325;72566;-78
2021/12/21 02:11:23;;;;;;;20.60;6.70;;;;;;;-4.24;100.00;102008.98;101654;1322;73946;-78
2021/12/21 02:13:51;;;;;;;17.90;9.60;;;;;;;-4.27;100.00;102009.25;101659;1325;60080;-77
2021/12/21 02:16:28;;;;;;;30.10;11.40;;;;;;;-4.28;100.00;102007.54;101613;1324;60536;-78
2021/12/21 02:19:02;;;;;;;23.00;11.50;;;;;;;-4.28;100.00;102003.39;101879;1325;72059;-79
2021/12/21 02:21:45;;;;;;;18.60;10.20;;;;;;;-4.31;100.00;101999.00;101761;1322;71383;-78
2021/12/21 02:24:17;;;;;;;20.50;9.80;;;;;;;-4.34;100.00;102000.48;102021;1323;73724;-79
2021/12/21 02:26:50;;;;;;;16.40;9.30;;;;;;;-4.35;100.00;102000.34;101911;1325;62631;-78
2021/12/21 02:29:28;;;;;;;14.40;7.30;;;;;;;-4.34;100.00;101998.05;101939;1323;60622;-79
2021/12/21 02:31:56;;;;;;;18.80;8.50;;;;;;;-4.34;100.00;101994.42;101834;1325;73092;-80
2021/12/21 02:34:23;;;;;;;16.40;8.00;;;;;;;-4.38;100.00;101994.02;101986;1322;71495;-79
2021/12/21 02:36:53;;;;;;;14.80;7.20;;;;;;;-4.42;100.00;101991.21;101934;1323;73229;-79
2021/12/21 02:39:22;;;;;;;13.60;8.00;;;;;;;-4.44;100.00;101984.55;101964;1322;61448;-78
2021/12/21 02:41:49;;;;;;;20.00;8.80;;;;;;;-4.46;100.00;101981.84;101939;1322;60485;-77
2021/12/21 02:44:16;;;;;;;18.40;8.50;;;;;;;-4.48;100.00;101980.19;101829;1328;75174;-78
2021/12/21 02:46:44;;;;;;;19.10;8.50;;;;;;;-4.49;100.00;101978.67;101995;1323;71451;-77
2021/12/21 02:49:11;;;;;;;17.90;9.20;;;;;;;-4.49;100.00;101978.65;102013;1323;73333;-78
2021/12/21 02:51:44;;;;;;;21.30;10.10;;;;;;;-4.48;100.00;101974.48;101777;1322;61475;-78
2021/12/21 02:54:13;;;;;;;16.90;8.70;;;;;;;-4.47;100.00;101972.55;102065;1322;61731;-78
2021/12/21 02:56:40;;;;;;;18.80;7.30;;;;;;;-4.47;100.00;101975.14;101869;1325;74210;-78
2021/12/21 02:59:09;;;;;;;17.50;7.30;;;;;;;-4.48;100.00;101975.16;101951;1325;71429;-77
2021/12/21 03:01:37;;;;;;;15.70;8.00;;;;;;;-4.51;100.00;101977.51;101656;1322;72959;-77
2021/12/21 03:04:07;;;;;;;14.40;7.50;;;;;;;-4.56;100.00;101981.95;101575;1322;60862;-77
2021/12/21 03:11:57;;;;;;;21.70;9.90;;;;;;;-4.61;100.00;101976.09;101097;1324;71631;-77
2021/12/21 03:14:25;;;;;;;17.90;9.40;;;;;;;-4.63;100.00;101983.71;101437;1323;71705;-78
2021/12/21 03:16:53;;;;;;;16.10;7.70;;;;;;;-4.65;100.00;101987.42;101581;1323;61454;-79
2021/12/21 03:19:20;;;;;;;13.70;7.40;;;;;;;-4.68;100.00;101985.94;101318;1325;60616;-77
2021/12/21 03:21:46;;;;;;;13.70;7.80;;;;;;;-4.70;100.00;101983.76;101399;1326;74118;-77
2021/12/21 03:24:13;;;;;;;13.10;6.60;;;;;;;-4.71;100.00;101987.59;101680;1322;72494;-77
2021/12/21 03:26:40;;;;;;;13.20;8.20;;;;;;;-4.75;100.00;101992.69;101499;1322;73432;-77
2021/12/21 03:29:07;;;;;;;21.20;9.20;;;;;;;-4.77;100.00;101988.97;101401;1323;61287;-77
2021/12/21 03:31:33;;;;;;;18.60;9.10;;;;;;;-4.80;100.00;101984.04;101635;1322;61702;-77
2021/12/21 03:34:00;;;;;;;26.30;9.30;;;;;;;-4.81;100.00;101984.06;101460;1322;75609;-79
2021/12/21 03:36:27;;;;;;;14.70;8.70;;;;;;;-4.81;100.00;101981.68;101931;1325;71395;-79
2021/12/21 03:39:05;;;;;;;18.10;8.20;;;;;;;-4.82;100.00;101980.15;101983;1323;73958;-79
2021/12/21 03:41:35;;;;;;;21.50;8.50;;;;;;;-4.81;100.00;101974.25;101814;1324;61627;-79
2021/12/21 03:44:03;;;;;;;20.20;8.40;;;;;;;-4.80;100.00;101972.84;101884;1322;60494;-78
2021/12/21 03:46:33;;;;;;;16.90;7.80;;;;;;;-4.80;100.00;101974.05;101779;1322;74234;-76
2021/12/21 03:49:11;;;;;;;14.20;7.00;;;;;;;-4.81;100.00;101972.34;101497;1322;71406;-77
2021/12/21 03:51:38;;;;;;;11.10;5.80;;;;;;;-4.83;100.00;101973.12;101390;1323;74871;-79
2021/12/21 03:54:05;;;;;;;15.20;6.70;;;;;;;-4.85;100.00;101970.58;101847;1319;60622;-77
2021/12/21 03:56:39;;;;;;;17.40;8.50;;;;;;;-4.88;100.00;101973.97;101959;1318;60874;-78
2021/12/21 03:59:07;;;;;;;23.70;9.80;;;;;;;-4.90;100.00;101971.95;101796;1321;74885;-77
2021/12/21 04:01:34;;;;;;;22.50;10.80;;;;;;;-4.92;100.00;101973.70;102019;1318;72410;-78
2021/12/21 04:04:01;;;;;;;18.80;8.50;;;;;;;-4.93;100.00;101965.27;101940;1324;73784;-77
2021/12/21 04:06:28;;;;;;;17.40;8.50;;;;;;;-4.94;100.00;101968.04;101878;1318;61466;-77
2021/12/21 04:08:55;;;;;;;22.30;9.90;;;;;;;-4.93;100.00;101970.45;102221;1318;61788;-76
2021/12/21 04:11:22;;;;;;;23.30;10.90;;;;;;;-4.93;100.00;101971.13;101997;1319;74349;-77
2021/12/21 04:13:48;;;;;;;14.80;7.60;;;;;;;-4.90;100.00;101969.52;101968;1318;71433;-77
2021/12/21 04:16:15;;;;;;;13.60;6.80;;;;;;;-4.89;100.00;101969.31;102067;1318;72975;-77
2021/12/21 04:18:41;;;;;;;16.90;7.80;;;;;;;-4.87;100.00;101970.64;101847;1319;60520;-77
2021/12/21 04:21:11;;;;;;;14.00;6.80;;;;;;;-4.86;100.00;101972.50;101863;1321;60538;-78
2021/12/21 04:23:42;;;;;;;13.30;6.70;;;;;;;-4.87;100.00;101971.48;101891;1319;75430;-79
2021/12/21 04:26:10;;;;;;;17.40;9.30;;;;;;;-4.87;100.00;101975.66;102135;1318;71446;-77
2021/12/21 04:28:38;;;;;;;20.20;11.00;;;;;;;-4.88;100.00;101978.25;101978;1319;72959;-77
2021/12/21 04:31:05;;;;;;;19.60;10.30;;;;;;;-4.89;100.00;101973.45;101782;1318;62672;-77
2021/12/21 04:33:34;;;;;;;22.40;9.80;;;;;;;-4.92;100.00;101970.23;101754;1318;61602;-78
2021/12/21 04:36:01;;;;;;;15.60;8.70;;;;;;;-4.93;100.00;101972.52;101936;1318;74857;-78
2021/12/21 04:38:33;;;;;;;14.50;8.20;;;;;;;-4.94;100.00;101975.99;101977;1318;71593;-79
2021/12/21 04:41:09;;;;;;;17.40;7.50;;;;;;;-4.95;100.00;101979.13;102134;1309;73947;-78
2021/12/21 04:43:36;;;;;;;16.30;7.40;;;;;;;-4.98;100.00;101979.20;102216;1316;60467;-79
2021/12/21 04:46:04;;;;;;;16.30;8.90;;;;;;;-5.00;100.00;101976.35;102209;1315;62664;-79
2021/12/21 04:48:31;;;;;;;25.90;11.00;;;;;;;-5.01;100.00;101971.20;102169;1315;75171;-79
2021/12/21 04:50:58;;;;;;;16.70;8.50;;;;;;;-5.02;100.00;101970.52;102184;1315;73498;-79
2021/12/21 04:53:25;;;;;;;21.70;8.80;;;;;;;-5.03;100.00;101972.11;101954;1317;72983;-79
2021/12/21 04:55:52;;;;;;;17.10;8.20;;;;;;;-5.04;100.00;101973.68;102150;1315;61509;-79
2021/12/21 04:58:20;;;;;;;15.60;8.30;;;;;;;-5.05;100.00;101974.23;102208;1314;61567;-78
2021/12/21 05:00:47;;;;;;;17.70;8.70;;;;;;;-5.05;100.00;101974.75;102537;1317;74191;-78
2021/12/21 05:03:14;;;;;;;16.00;8.00;;;;;;;-5.04;100.00;101972.99;102231;1316;71093;-77
2021/12/21 05:05:42;;;;;;;16.90;7.20;;;;;;;-5.04;100.00;101969.02;102271;1316;74149;-78
2021/12/21 05:08:19;;;;;;;19.30;9.10;;;;;;;-5.05;100.00;101972.16;102228;1316;60499;-77
2021/12/21 05:10:50;;;;;;;25.40;12.20;;;;;;;-5.04;100.00;101973.16;102181;1316;61389;-77
2021/12/21 05:13:18;;;;;;;18.20;9.10;;;;;;;-5.03;100.00;101973.16;101953;1318;75239;-77
2021/12/21 05:15:48;;;;;;;21.70;11.30;;;;;;;-5.02;100.00;101973.11;102241;1317;71458;-77
2021/12/21 05:18:16;;;;;;;20.40;9.80;;;;;;;-4.99;100.00;101976.48;102015;1317;72986;-76
2021/12/21 05:20:43;;;;;;;23.70;9.00;;;;;;;-4.95;100.00;101976.19;102101;1317;61819;-77
2021/12/21 05:23:11;;;;;;;16.10;8.00;;;;;;;-4.89;100.00;101975.36;102303;1316;60648;-77
2021/12/21 05:25:39;;;;;;;15.90;7.70;;;;;;;-4.84;100.00;101980.38;102107;1319;75777;-79
2021/12/21 05:28:09;;;;;;;14.60;7.40;;;;;;;-4.79;100.00;101976.92;102287;1316;71516;-79
2021/12/21 05:30:36;;;;;;;10.40;6.70;;;;;;;-4.76;100.00;101976.49;102259;1316;71481;-78
2021/12/21 05:33:04;;;;;;;16.10;7.00;;;;;;;-4.75;100.00;101975.44;102197;1316;60605;-77
2021/12/21 05:35:33;;;;;;;21.90;10.30;;;;;;;-4.73;100.00;101974.68;101897;1319;61602;-77
2021/12/21 05:38:06;;;;;;;27.60;11.70;;;;;;;-4.69;100.00;101973.05;102331;1316;74914;-77
2021/12/21 05:40:37;;;;;;;19.70;10.90;;;;;;;-4.68;100.00;101967.48;102146;1316;72434;-77
2021/12/21 05:43:05;;;;;;;21.90;8.90;;;;;;;-4.64;100.00;101969.96;102166;1316;74112;-75
2021/12/21 05:45:32;;;;;;;22.40;9.20;;;;;;;-4.62;100.00;101970.94;102268;1316;62535;-76
2021/12/21 05:48:00;;;;;;;15.00;7.90;;;;;;;-4.60;100.00;101970.34;102103;1316;61590;-77
2021/12/21 05:50:27;;;;;;;18.70;8.10;;;;;;;-4.58;100.00;101970.81;102156;1317;75059;-77
2021/12/21 05:52:54;;;;;;;16.20;7.90;;;;;;;-4.58;100.00;101975.45;102042;1316;72925;-77
2021/12/21 05:55:21;;;;;;;18.80;7.50;;;;;;;-4.60;100.00;101974.83;102129;1316;73963;-76
2021/12/21 05:57:49;;;;;;;17.00;7.50;;;;;;;-4.62;100.00;101977.66;102175;1316;60510;-77
2021/12/21 06:00:23;;;;;;;20.10;9.00;;;;;;;-4.66;100.00;101977.60;102136;1316;60568;-76
2021/12/21 06:02:50;;;;;;;23.20;9.50;;;;;;;-4.69;100.00;101979.94;102004;1316;75460;-77
2021/12/21 06:05:17;;;;;;;25.80;11.70;;;;;;;-4.72;100.00;101976.73;101897;1318;70440;-75
2021/12/21 06:07:46;;;;;;;20.00;10.10;;;;;;;-4.74;100.00;101978.52;102086;1316;72077;-77
2021/12/21 06:10:18;;;;;;;15.30;9.10;;;;;;;-4.76;99.98;101980.48;102249;1317;61485;-76
2021/12/21 06:13:14;;;;;;;19.00;8.50;;;;;;;-4.76;100.00;101979.09;102179;1316;61642;-77
2021/12/21 06:25:18;;;;;;;14.50;6.50;;;;;;;-4.78;100.00;101975.36;102124;1316;60489;-78
2021/12/21 06:26:34;;;;;;;15.20;7.20;;;;;;;-4.80;100.00;101973.88;102027;1316;61647;-78
2021/12/21 06:29:02;;;;;;;18.00;7.80;;;;;;;-4.81;100.00;101971.81;102142;1317;75166;-76
2021/12/21 06:31:29;;;;;;;16.40;8.10;;;;;;;-4.81;100.00;101976.15;102175;1316;71294;-77
2021/12/21 06:33:56;;;;;;;19.10;9.00;;;;;;;-4.82;100.00;101976.88;102128;1317;74010;-78
2021/12/21 06:36:22;;;;;;;25.30;10.80;;;;;;;-4.82;100.00;101983.60;102061;1316;62942;-79
2021/12/21 06:38:50;;;;;;;22.30;11.10;;;;;;;-4.80;100.00;101985.94;101850;1316;442313;-78
2021/12/21 06:41:17;;;;;;;25.70;12.00;;;;;;;-4.76;100.00;101988.06;102090;1319;72382;-77
2021/12/21 06:43:43;;;;;;;18.00;8.60;;;;;;;-4.70;100.00;101987.04;102113;1316;72463;-78
2021/12/21 06:51:37;;;;;;;;;;;;;;;-4.56;100.00;101987.31;101950;1317;60686;-78
2021/12/21 06:54:03;;;;;;;12.30;7.40;;;;;;;-4.49;100.00;101984.02;102163;1316;74321;-77
2021/12/21 06:56:30;;;;;;;15.70;7.50;;;;;;;-4.44;100.00;101986.10;102008;1316;70610;-77
2021/12/21 06:58:57;;;;;;;16.40;8.40;;;;;;;-4.40;100.00;101984.95;102279;1316;74146;-78
2021/12/21 07:01:26;;;;;;;14.50;8.10;;;;;;;-4.37;100.00;101990.21;102271;1316;61932;-77
2021/12/21 07:03:53;;;;;;;24.20;11.20;;;;;;;-4.36;100.00;101988.09;102241;1316;61502;-76
2021/12/21 07:06:20;;;;;;;21.30;9.90;;;;;;;-4.33;99.98;101989.04;102082;1316;74161;-76
2021/12/21 07:09:38;;;;;;;18.60;10.10;;;;;;;-4.27;99.96;101987.66;102153;1316;72474;-78
2021/12/21 07:11:43;;;;;;;17.70;9.30;;;;;;;-4.19;100.00;101990.85;101966;1316;73738;-77
2021/12/21 07:19:44;;;;;;;15.20;6.90;;;;;;;-4.04;99.82;101995.05;102211;1315;73234;-78
2021/12/21 07:22:12;;;;;;;13.80;7.60;;;;;;;-4.01;99.93;101994.27;102193;1316;71596;-77
2021/12/21 07:24:40;;;;;;;16.10;7.10;;;;;;;-3.97;99.94;101993.96;102101;1316;73018;-78
2021/12/21 07:27:07;;;;;;;13.40;8.10;;;;;;;-3.92;100.00;101995.00;101957;1319;60516;-77
2021/12/21 07:29:34;;;;;;;14.90;8.20;;;;;;;-3.89;99.96;101996.64;102165;1316;61935;-77
2021/12/21 07:32:01;;;;;;;21.70;9.50;;;;;;;-3.88;99.80;101995.59;102194;1316;73351;-79
2021/12/21 07:34:28;;;;;;;23.70;10.30;;;;;;;-3.86;99.51;102001.56;102175;1316;71373;-77
2021/12/21 07:36:55;;;;;;;28.10;12.20;;;;;;;-3.84;99.49;102003.20;102135;1316;73957;-77
2021/12/21 07:39:22;;;;;;;19.30;10.00;;;;;;;-3.81;99.41;102000.35;102219;1316;61387;-79
2021/12/21 07:42:08;;;;;;;18.20;9.00;;;;;;;-3.79;99.26;102000.79;102238;1316;61598;-77
2021/12/21 07:44:35;;;;;;;20.60;8.70;;;;;;;-3.77;99.50;102002.48;102224;1316;74191;-77
2021/12/21 07:47:02;;;;;;;14.00;8.40;;;;;;;-3.74;99.63;102003.56;102160;1316;71450;-77
2021/12/21 07:49:28;;;;;;;14.60;7.00;;;;;;;-3.71;99.56;102003.32;101937;1319;73949;-78
2021/12/21 07:51:56;;;;;;;12.90;7.00;;;;;;;-3.68;99.45;102003.55;102157;1316;60501;-78
2021/12/21 07:54:22;;;;;;;17.80;6.90;;;;;;;-3.65;99.53;102004.31;101906;1319;61160;-76
2021/12/21 07:56:49;;;;;;;21.00;8.80;;;;;;;-3.63;99.21;102003.24;102150;1316;73679;-77
2021/12/21 07:59:16;;;;;;;19.30;10.20;;;;;;;-3.61;98.99;102001.09;102121;1317;60344;-79
2021/12/21 08:01:42;;;;;;;26.70;11.00;;;;;;;-3.59;99.06;101999.27;102104;1316;73518;-77
2021/12/21 08:04:10;;;;;;;21.90;10.60;;;;;;;-3.56;98.94;102004.03;102191;1315;61725;-77
2021/12/21 08:06:37;;;;;;;22.20;9.30;;;;;;;-3.53;99.00;102008.25;102062;1316;60631;-77
2021/12/21 08:09:05;;;;;;;25.20;9.40;;;;;;;-3.51;99.03;102011.64;101815;1319;73098;-77
2021/12/21 08:14:04;;;;;;;22.50;10.20;;;;;;;-3.48;99.40;102008.95;102068;1316;72001;-78
2021/12/21 08:16:32;;;;;;;38.70;10.40;;;;;;;-3.46;99.54;102008.00;102371;1316;60612;-79
2021/12/21 08:18:59;;;;;;;28.90;10.10;;;;;;;-3.45;99.72;102015.59;102298;1316;60975;-78
2021/12/21 08:21:26;;;;;;;22.70;10.90;;;;;;;-3.44;99.65;102016.95;102051;1320;75269;-79
2021/12/21 08:23:53;;;;;;;31.60;13.30;;;;;;;-3.43;99.75;102015.17;102390;1317;72623;-79
2021/12/21 08:26:20;;;;;;;32.70;12.00;;;;;;;-3.43;99.92;102014.29;102337;1316;74114;-78
2021/12/21 08:28:47;;;;;;;27.10;10.60;;;;;;;-3.42;100.00;102018.23;102258;1316;62203;-78
2021/12/21 08:31:13;;;;;;;25.60;9.20;;;;;;;-3.39;100.00;102017.10;102565;1316;61636;-77
2021/12/21 08:33:42;;;;;;;24.80;11.10;;;;;;;-3.37;100.00;102016.02;102138;1316;72961;-79
2021/12/21 08:36:10;;;;;;;21.90;8.80;;;;;;;-3.33;100.00;102021.73;102422;1316;70467;-78
2021/12/21 08:38:41;;;;;;;20.50;9.40;;;;;;;-3.27;100.00;102024.15;101927;1319;74124;-77
2021/12/21 08:41:09;;;;;;;23.50;10.30;;;;;;;-3.24;100.00;102018.87;102416;1317;61786;-79
2021/12/21 08:43:36;;;;;;;27.00;12.20;;;;;;;-3.20;100.00;102021.64;102091;1319;60569;-78
2021/12/21 08:46:06;;;;;;;27.90;12.60;;;;;;;-3.15;100.00;102022.01;102225;1316;74127;-79
2021/12/21 08:48:34;;;;;;;23.10;12.10;;;;;;;-3.12;100.00;102021.00;102303;1317;71366;-80
2021/12/21 08:51:03;;;;;;;30.80;12.40;;;;;;;-3.08;100.00;102023.81;102591;1316;72909;-78
2021/12/21 08:53:31;;;;;;;27.50;11.70;;;;;;;-3.04;99.98;102021.95;102227;1319;61210;-78
2021/12/21 08:55:59;;;;;;;23.10;11.30;;;;;;;-3.04;99.99;102023.33;102325;1320;60409;-80
2021/12/21 08:58:26;;;;;;;25.30;11.80;;;;;;;-3.04;100.00;102027.13;102482;1316;74168;-80
2021/12/21 09:00:53;;;;;;;22.80;9.70;;;;;;;-3.00;100.00;102028.21;102375;1316;72572;-79
2021/12/21 09:03:22;;;;;;;20.90;10.40;;;;;;;-2.98;100.00;102029.34;102425;1316;72790;-80
2021/12/21 09:05:49;;;;;;;21.60;10.60;;;;;;;-2.97;99.98;102029.15;102633;1310;60392;-79
2021/12/21 09:08:15;;;;;;;26.80;11.50;;;;;;;-3.01;99.68;102027.21;102678;1310;61636;-79
2021/12/21 09:10:42;;;;;;;23.40;11.20;;;;;;;-3.04;99.54;102025.09;103059;1307;60492;-80
2021/12/21 09:15:42;;;;;;;22.20;11.70;;;;;;;-3.00;99.93;102021.80;103052;1312;73180;-82
2021/12/21 09:18:09;;;;;;;24.40;12.40;;;;;;;-2.97;99.79;102020.33;102169;1318;61501;-79
2021/12/21 09:23:04;;;;;;;17.80;9.10;;;;;;;-2.91;99.77;102021.30;102554;1316;72848;-78
2021/12/21 09:25:40;;;;;;;21.80;12.00;;;;;;;-2.86;99.88;102024.41;102444;1319;71898;-79
2021/12/21 09:28:08;;;;;;;18.10;11.00;;;;;;;-2.79;100.00;102023.48;102740;1319;74352;-78
2021/12/21 09:30:35;;;;;;;18.10;10.80;;;;;;;-2.76;99.96;102025.09;102167;1319;61000;-78
2021/12/21 09:33:11;;;;;;;21.30;10.50;;;;;;;-2.73;99.80;102026.05;102250;1318;60594;-77
2021/12/21 09:35:41;;;;;;;12.50;6.20;;;;;;;-2.75;99.34;102029.37;102101;1319;74182;-78
2021/12/21 09:38:09;;;;;;;25.20;12.70;;;;;;;-2.80;98.99;102033.90;102184;1319;72981;-79
2021/12/21 09:40:39;;;;;;;20.40;11.20;;;;;;;-2.79;99.35;102039.76;102409;1318;73076;-79
2021/12/21 09:43:11;;;;;;;19.00;10.90;;;;;;;-2.75;99.83;102040.48;102504;1319;60425;-80
2021/12/21 09:45:43;;;;;;;16.20;11.00;;;;;;;-2.68;99.89;102044.73;102542;1319;61370;-79
2021/12/21 09:48:10;;;;;;;14.10;8.20;;;;;;;-2.62;99.98;102044.48;102506;1319;75191;-79
2021/12/21 09:50:37;;;;;;;14.80;8.70;;;;;;;-2.60;99.73;102046.34;102277;1322;71444;-79
2021/12/21 09:53:04;;;;;;;13.80;8.80;;;;;;;-2.61;99.39;102044.30;102210;1319;72943;-78
2021/12/21 09:55:31;;;;;;;17.30;10.20;;;;;;;-2.61;99.55;102044.45;102152;1319;60588;-80
2021/12/21 09:58:03;;;;;;;14.50;9.60;;;;;;;-2.58;99.74;102046.92;102286;1319;60451;-79
2021/12/21 10:00:34;;;;;;;22.40;11.00;;;;;;;-2.53;99.78;102046.05;102275;1322;74171;-78
2021/12/21 10:03:04;;;;;;;17.70;11.20;;;;;;;-2.48;99.70;102040.85;102248;1316;70704;-78
2021/12/21 10:05:37;;;;;;;21.20;11.60;;;;;;;-2.44;99.67;102038.63;102198;1320;71607;-76
2021/12/21 10:08:29;;;;;;;22.90;12.50;;;;;;;-2.37;99.92;102036.45;102283;1319;60584;-76
2021/12/21 10:10:56;;;;;;;22.00;12.50;;;;;;;-2.26;100.00;102040.21;102265;1319;60435;-79
2021/12/21 10:13:25;;;;;;;18.60;11.30;;;;;;;-2.18;99.99;102035.23;102312;1319;75144;-79
2021/12/21 10:16:07;;;;;;;20.20;11.70;;;;;;;-2.13;99.69;102033.96;102506;1312;72624;-78
2021/12/21 10:18:45;;;;;;;24.30;12.40;;;;;;;-2.10;99.56;102026.73;102269;1316;73189;-78
2021/12/21 10:21:15;;;;;;;20.20;11.30;;;;;;;-2.07;99.14;102024.39;102419;1316;60476;-79
2021/12/21 10:23:48;;;;;;;21.60;10.20;;;;;;;-2.07;99.09;102018.97;102241;1316;60968;-78
2021/12/21 10:26:39;;;;;;;23.70;12.50;;;;;;;-2.00;99.17;102025.70;102205;1316;73650;-77
2021/12/21 10:29:09;;;;;;;17.70;10.80;;;;;;;-1.99;98.42;102027.54;102285;1316;72292;-77
2021/12/21 10:31:41;;;;;;;13.50;8.00;;;;;;;-2.00;98.20;102030.52;102355;1318;72789;-78
2021/12/21 10:34:14;;;;;;;18.40;11.30;;;;;;;-1.98;98.24;102025.92;102351;1320;62536;-78
2021/12/21 10:36:49;;;;;;;16.80;9.90;;;;;;;-1.90;98.91;102025.95;102676;1319;60650;-76
2021/12/21 10:39:26;;;;;;;17.00;10.80;;;;;;;-1.80;99.14;102027.98;102564;1317;73932;-79
2021/12/21 10:41:59;;;;;;;14.70;9.30;;;;;;;-1.76;98.45;102021.41;102391;1314;72829;-78
2021/12/21 10:44:26;;;;;;;11.00;7.60;;;;;;;-1.74;98.23;102019.41;102738;1320;72601;-80
2021/12/21 10:46:56;;;;;;;17.20;11.10;;;;;;;-1.72;98.02;102018.63;102744;1317;61512;-77
2021/12/21 10:49:37;;;;;;;15.90;10.60;;;;;;;-1.70;97.69;102016.13;102167;1322;62238;-78
2021/12/21 10:52:14;;;;;;;14.50;9.50;;;;;;;-1.67;97.67;102018.63;102502;1319;74333;-79
2021/12/21 10:54:44;;;;;;;20.20;10.70;;;;;;;-1.66;97.59;102022.55;102246;1321;70110;-76
2021/12/21 10:57:12;;;;;;;16.50;9.50;;;;;;;-1.62;97.84;102015.11;102073;1319;71652;-78
2021/12/21 10:59:45;;;;;;;9.30;5.30;;;;;;;-1.57;97.77;102011.42;102247;1316;60501;-79
2021/12/21 11:02:18;;;;;;;15.10;9.40;;;;;;;-1.56;97.39;102010.02;102277;1316;61676;-77
2021/12/21 11:04:51;;;;;;;9.30;6.00;;;;;;;-1.55;97.50;102008.05;102060;1316;77552;-77
2021/12/21 11:10:11;;;;;;;9.50;5.70;;;;;;;-1.52;97.49;102006.04;102279;1316;73076;-78
2021/12/21 11:13:10;;;;;;;16.00;9.70;;;;;;;-1.53;97.17;102005.70;102289;1316;63353;-77
2021/12/21 11:15:53;;;;;;;16.30;10.70;;;;;;;-1.54;97.01;102001.58;102246;1316;61110;-76
2021/12/21 11:18:27;;;;;;;13.30;8.00;;;;;;;-1.54;96.66;102003.16;102128;1316;75268;-75
2021/12/21 11:20:57;;;;;;;16.90;10.40;;;;;;;-1.59;96.47;102002.51;102190;1316;72624;-76
2021/12/21 11:23:26;;;;;;;6.70;4.40;;;;;;;-1.58;96.97;101997.43;102223;1316;72938;-76
2021/12/21 11:25:58;;;;;;;17.10;10.20;;;;;;;-1.55;97.28;101997.30;102100;1319;60594;-76
2021/12/21 11:28:35;;;;;;;8.60;6.10;;;;;;;-1.51;97.42;101994.17;102237;1316;60570;-76
2021/12/21 11:31:08;;;;;;;17.90;10.50;;;;;;;-1.52;97.12;101991.08;102129;1316;73153;-75
2021/12/21 11:33:43;;;;;;;16.50;9.60;;;;;;;-1.54;97.05;101991.38;102205;1317;71490;-75
2021/12/21 11:39:02;;;;;;;20.10;11.40;;;;;;;-1.51;97.07;101984.30;102124;1316;61431;-76
2021/12/21 11:41:41;;;;;;;15.50;9.00;;;;;;;-1.46;97.14;101985.67;102249;1316;60656;-76
2021/12/21 11:44:08;;;;;;;18.40;10.30;;;;;;;-1.49;96.90;101987.47;101929;1316;73027;-75
2021/12/21 11:47:07;;;;;;;16.40;9.80;;;;;;;-1.51;96.81;101984.64;102120;1317;72444;-77
2021/12/21 11:49:54;;;;;;;8.00;5.00;;;;;;;-1.53;96.89;101982.83;102013;1316;73928;-76
2021/12/21 11:52:25;;;;;;;7.40;4.80;;;;;;;-1.56;96.83;101984.52;102037;1319;61013;-75
2021/12/21 11:55:04;;;;;;;11.60;6.50;;;;;;;-1.60;96.90;101982.94;102175;1316;61635;-74
2021/12/21 11:57:39;;;;;;;12.70;6.80;;;;;;;-1.62;96.88;101980.98;102252;1316;75125;-76
2021/12/21 12:00:13;;;;;;;9.70;6.70;;;;;;;-1.63;97.12;101984.13;102045;1317;72524;-76
2021/12/21 12:02:42;;;;;;;9.00;5.20;;;;;;;-1.66;96.96;101986.82;102201;1316;72719;-77
2021/12/21 12:05:25;;;;;;;10.50;6.00;;;;;;;-1.72;96.77;101981.02;102029;1319;62455;-77
2021/12/21 12:08:28;;;;;;;16.20;10.50;;;;;;;-1.78;96.50;101978.30;102307;1316;60582;-76
2021/12/21 12:11:01;;;;;;;18.40;10.60;;;;;;;-1.78;96.91;101972.95;101908;1316;74114;-76